Troviken — C6ZT9 — position and weather

sailwx.info

Track history (hours):
 
Tides and Currents Weather Stations Pressure Air Temp Water Temp Dewpoint Dewpoint Depression Visibility Wind Speed Wind Dir Waves Ship Positions

Troviken

Last reported at 2018-Apr-19 14:30 UTC. Time now 2018-Apr-20 14:45 UTC.
Position N 60°48' E 004°18'.

Length 250 m; draft 8.5 m.

Type: Tanker. MMSI: 311066200.

Date/timePositionNaut miles runAvg speedWind from/ knotsBaromVisibWave heightAir tempDewpointWater temp
2018-Apr-19 14:30N 60°48' E 004°18'4 7.6
2018-Apr-19 14:00N 60°45' E 004°23'94 7.1
2018-Apr-19 00:40N 59°11' E 004°11'2 6.9
2018-Apr-19 00:24N 59°09' E 004°11'3 6.7
2018-Apr-18 23:55N 59°06' E 004°11'3 6.8
2018-Apr-18 23:30N 59°03' E 004°11'4 6.9
2018-Apr-18 22:57N 58°59' E 004°11'6 6.7
2018-Apr-18 22:06N 58°53' E 004°11'1 6.5
2018-Apr-18 21:58N 58°53' E 004°11'33 6.6
2018-Apr-18 16:54N 58°19' E 004°11'5 6.1
2018-Apr-18 16:07N 58°14' E 004°11'8 5.4
2018-Apr-18 14:42N 58°07' E 004°11'1 5.4
2018-Apr-18 14:29N 58°06' E 004°12'21712.5
2018-Apr-17 21:06N 54°28' E 004°33'114.1
2018-Apr-17 21:00N 54°27' E 004°34'814.0
2018-Apr-17 20:27N 54°20' E 004°37'614.0
2018-Apr-17 20:00N 54°14' E 004°39'714.1
2018-Apr-17 19:30N 54°06' E 004°40'9014.1
2018-Apr-17 13:07N 52°51' E 003°17'314.0
2018-Apr-17 12:53N 52°48' E 003°15'513.8
2018-Apr-17 12:30N 52°43' E 003°11'1413.3
2018-Apr-17 11:29N 52°31' E 003°00'3212.3
2018-Apr-17 08:54N 52°02' E 002°41'512.4
2018-Apr-17 08:30N 51°57' E 002°42'612.1
2018-Apr-17 08:00N 51°51' E 002°39'612.4
2018-Apr-17 07:30N 51°46' E 002°34'613.1
2018-Apr-17 07:00N 51°41' E 002°28'713.5
2018-Apr-17 06:30N 51°35' E 002°21'713.8
2018-Apr-17 06:00N 51°30' E 002°14'713.4
2018-Apr-17 05:30N 51°25' E 002°08'713.7
2018-Apr-17 05:00N 51°18' E 002°07'713.2
2018-Apr-17 04:30N 51°13' E 002°01'713.8
2018-Apr-17 04:01N 51°09' E 001°51'714.4
2018-Apr-17 03:30N 51°05' E 001°42'714.9
2018-Apr-17 03:00N 50°60' E 001°34'815.2
2018-Apr-17 02:30N 50°53' E 001°27'815.8
2018-Apr-17 02:00N 50°46' E 001°23'714.4
2018-Apr-17 01:30N 50°40' E 001°17'714.4
2018-Apr-17 01:00N 50°35' E 001°09'814.1
2018-Apr-17 00:28N 50°31' E 000°59'814.7
2018-Apr-16 23:54N 50°28' E 000°46'614.7
2018-Apr-16 23:30N 50°26' E 000°38'815.1
2018-Apr-16 23:00N 50°24' E 000°26'815.6
2018-Apr-16 22:30N 50°21' E 000°15'816.1
2018-Apr-16 22:00N 50°19' E 000°02'816.4
2018-Apr-16 21:30N 50°18' W 000°10'816.9
2018-Apr-16 21:00N 50°16' W 000°23'2117.3
2018-Apr-16 19:49N 50°10' W 000°54'517.3
2018-Apr-16 19:30N 50°08' W 001°02'917.1
2018-Apr-16 19:01N 50°06' W 001°14'816.6
2018-Apr-16 18:31N 50°04' W 001°27'815.8
2018-Apr-16 18:00N 50°02' W 001°39'815.0
2018-Apr-16 17:30N 50°01' W 001°51'714.0
2018-Apr-16 17:01N 49°59' W 002°01'713.2
2018-Apr-16 16:30N 49°58' W 002°11'1212.4
2018-Apr-16 15:30N 49°54' W 002°30'611.9
2018-Apr-16 14:59N 49°52' W 002°39'611.7
2018-Apr-16 14:27N 49°50' W 002°48'511.8
2018-Apr-16 14:00N 49°50' W 002°56'611.6
2018-Apr-16 13:30N 49°50' W 003°05'611.4
2018-Apr-16 13:01N 49°50' W 003°14'611.6
2018-Apr-16 12:30N 49°51' W 003°23'611.6
2018-Apr-16 12:00N 49°50' W 003°32'611.5
2018-Apr-16 11:30N 49°50' W 003°41'911.8
2018-Apr-16 10:43N 49°50' W 003°55'312.1
2018-Apr-16 10:28N 49°50' W 003°60'612.2
2018-Apr-16 10:00N 49°50' W 004°09'612.4
2018-Apr-16 09:30N 49°50' W 004°18'712.6
2018-Apr-16 08:56N 49°50' W 004°29'712.9
2018-Apr-16 08:22N 49°50' W 004°41'1613.5
2018-Apr-16 07:10N 49°50' W 005°06'314.1
2018-Apr-16 06:57N 49°50' W 005°11'1414.1
2018-Apr-16 05:58N 49°50' W 005°32'32 8.7
2018-Apr-16 02:19N 50°16' W 006°01'310.5
2018-Apr-16 02:00N 50°19' W 006°02'610.2
2018-Apr-16 01:28N 50°25' W 006°01'710.6
2018-Apr-16 00:47N 50°32' W 006°01'910.5
2018-Apr-15 23:55N 50°41' W 005°55'410.3
2018-Apr-15 23:30N 50°45' W 005°52'510.6
2018-Apr-15 23:00N 50°49' W 005°49'1010.7
2018-Apr-15 22:04N 50°58' W 005°42'111.1
2018-Apr-15 21:58N 50°59' W 005°41'1210.7
2018-Apr-15 20:52N 51°10' W 005°34'410.3
2018-Apr-15 20:30N 51°13' W 005°31'810.1
2018-Apr-15 19:45N 51°20' W 005°26'310.1
2018-Apr-15 19:30N 51°23' W 005°24'8 9.5
2018-Apr-15 18:38N 51°30' W 005°18'1 9.5
2018-Apr-15 18:30N 51°31' W 005°18'5 9.3
2018-Apr-15 18:00N 51°36' W 005°15'4 8.9
2018-Apr-15 17:30N 51°40' W 005°12'4 8.2
2018-Apr-15 17:00N 51°42' W 005°07'3 5.2
2018-Apr-15 16:30N 51°42' W 005°02'0 0.3
2018-Apr-15 16:00N 51°42' W 005°03'0 0.0
2018-Apr-15 15:30N 51°42' W 005°03'0 0.0
2018-Apr-14 08:11N 51°42' W 005°03'0 0.0
2018-Apr-14 07:56N 51°42' W 005°03'0 0.0
2018-Apr-14 07:29N 51°42' W 005°03'0 0.0
2018-Apr-14 06:59N 51°42' W 005°03'1 1.9
2018-Apr-14 06:30N 51°42' W 005°04'3 6.6
2018-Apr-14 06:00N 51°41' W 005°09'5 9.8
2018-Apr-14 05:29N 51°37' W 005°13'510.5
2018-Apr-14 05:00N 51°33' W 005°18'1 2.3
2018-Apr-14 04:26N 51°32' W 005°19'0 0.3
2018-Apr-14 03:50N 51°32' W 005°19'0 0.2
2018-Apr-14 03:29N 51°31' W 005°19'0 0.1
2018-Apr-14 02:53N 51°31' W 005°19'0 0.0
2018-Apr-14 02:29N 51°31' W 005°19'0 0.0
2018-Apr-14 01:59N 51°31' W 005°19'0 0.0
2018-Apr-14 01:29N 51°31' W 005°19'0 0.1
2018-Apr-14 00:53N 51°31' W 005°19'0 0.0
2018-Apr-14 00:23N 51°31' W 005°19'0 0.0
2018-Apr-13 23:56N 51°31' W 005°19'0 0.1
2018-Apr-13 23:29N 51°31' W 005°19'0 0.2
2018-Apr-13 22:50N 51°31' W 005°19'0 0.2
2018-Apr-13 22:29N 51°31' W 005°19'0 0.2
2018-Apr-13 21:59N 51°31' W 005°20'0 0.1
2018-Apr-13 21:26N 51°31' W 005°20'0 0.0
2018-Apr-13 20:59N 51°32' W 005°20'0 0.1
2018-Apr-13 20:29N 51°32' W 005°20'0 0.0
2018-Apr-13 19:59N 51°32' W 005°20'0 0.0
2018-Apr-13 19:29N 51°32' W 005°20'0 0.0
2018-Apr-13 18:56N 51°32' W 005°20'0 0.1
2018-Apr-13 18:29N 51°32' W 005°20'0 0.1
2018-Apr-13 17:59N 51°32' W 005°19'0 0.1
2018-Apr-13 17:26N 51°32' W 005°19'0 0.1
2018-Apr-13 16:59N 51°32' W 005°19'0 0.1
2018-Apr-13 16:23N 51°32' W 005°19'0 0.2
2018-Apr-13 15:59N 51°32' W 005°19'0 0.1
2018-Apr-13 15:26N 51°32' W 005°19'0 0.1
2018-Apr-13 14:56N 51°31' W 005°19'0 0.1
2018-Apr-13 14:29N 51°31' W 005°19'0 0.0
2018-Apr-13 13:59N 51°31' W 005°19'0 0.1
2018-Apr-13 13:29N 51°31' W 005°19'0 0.1
2018-Apr-13 12:59N 51°31' W 005°19'0 0.1
2018-Apr-13 12:26N 51°31' W 005°19'0 0.0
2018-Apr-13 11:53N 51°31' W 005°19'0 0.0
2018-Apr-13 11:29N 51°31' W 005°19'0 0.1
2018-Apr-13 10:59N 51°31' W 005°19'0 0.3
2018-Apr-13 10:29N 51°31' W 005°19'0 0.2
2018-Apr-13 09:59N 51°31' W 005°19'0 0.1
2018-Apr-13 09:29N 51°32' W 005°20'0 0.0
2018-Apr-13 08:56N 51°32' W 005°20'0 0.0
2018-Apr-13 08:26N 51°32' W 005°19'0 0.0
2018-Apr-13 07:59N 51°32' W 005°19'0 0.1
2018-Apr-13 07:26N 51°32' W 005°19'0 0.0
2018-Apr-13 06:59N 51°32' W 005°19'0 0.0
2018-Apr-13 06:29N 51°32' W 005°19'0 0.0
2018-Apr-13 05:59N 51°32' W 005°19'0 0.0
2018-Apr-13 05:29N 51°32' W 005°19'0 0.0
2018-Apr-13 04:56N 51°32' W 005°19'0 0.1
2018-Apr-13 04:26N 51°32' W 005°19'0 0.1
2018-Apr-13 03:59N 51°32' W 005°19'0 0.2
2018-Apr-13 03:29N 51°32' W 005°19'0 0.2
2018-Apr-13 02:59N 51°32' W 005°19'0 0.1
2018-Apr-13 02:29N 51°31' W 005°19'0 0.0
2018-Apr-13 01:59N 51°31' W 005°19'0 0.0
2018-Apr-13 01:29N 51°31' W 005°19'0 0.0
2018-Apr-13 00:59N 51°31' W 005°19'0 0.0
2018-Apr-13 00:29N 51°31' W 005°19'0 0.1
2018-Apr-12 23:59N 51°31' W 005°19'0 0.0
2018-Apr-12 23:23N 51°31' W 005°19'0 0.0
2018-Apr-12 22:59N 51°31' W 005°19'0 0.2
2018-Apr-12 22:26N 51°31' W 005°19'0 0.2
2018-Apr-12 21:59N 51°31' W 005°19'0 0.2
2018-Apr-12 21:29N 51°32' W 005°19'0 0.1
2018-Apr-12 20:59N 51°32' W 005°19'0 0.0
2018-Apr-12 20:29N 51°32' W 005°19'0 0.0
2018-Apr-12 19:59N 51°32' W 005°19'0 0.0
2018-Apr-12 19:26N 51°32' W 005°19'0 0.0
2018-Apr-12 18:47N 51°32' W 005°19'0 0.1
2018-Apr-12 18:26N 51°32' W 005°19'0 0.0
2018-Apr-12 17:59N 51°32' W 005°19'0 0.1
2018-Apr-12 17:29N 51°32' W 005°19'0 0.0
2018-Apr-12 16:56N 51°32' W 005°19'0 0.0
2018-Apr-12 16:29N 51°32' W 005°19'0 0.1
2018-Apr-12 15:59N 51°32' W 005°19'0 0.1
2018-Apr-12 15:29N 51°32' W 005°19'0 0.2
2018-Apr-12 14:59N 51°32' W 005°19'0 0.1
2018-Apr-12 14:17N 51°31' W 005°19'0 0.1
2018-Apr-12 13:59N 51°31' W 005°19'0 0.0
2018-Apr-12 13:29N 51°31' W 005°19'0 0.0
2018-Apr-12 12:59N 51°31' W 005°19'0 0.0
2018-Apr-12 12:29N 51°31' W 005°19'0 0.0
2018-Apr-12 11:59N 51°31' W 005°19'0 0.1
2018-Apr-12 11:26N 51°31' W 005°19'0 0.1
2018-Apr-12 10:59N 51°31' W 005°19'0 0.1
2018-Apr-12 10:29N 51°31' W 005°19'0 0.1
2018-Apr-12 09:59N 51°31' W 005°19'0 0.2
2018-Apr-12 09:29N 51°31' W 005°19'0 0.0
2018-Apr-12 08:53N 51°31' W 005°19'0 0.1
2018-Apr-12 08:29N 51°31' W 005°20'0 0.1
2018-Apr-12 07:53N 51°31' W 005°20'0 0.1
2018-Apr-12 07:29N 51°32' W 005°20'0 0.1
2018-Apr-12 06:59N 51°32' W 005°20'0 0.1
2018-Apr-12 06:29N 51°32' W 005°19'0 0.0
2018-Apr-12 05:56N 51°32' W 005°19'0 0.0
2018-Apr-12 05:29N 51°32' W 005°19'0 0.1
2018-Apr-12 04:59N 51°32' W 005°19'0 0.1
2018-Apr-12 04:26N 51°32' W 005°19'0 0.1
2018-Apr-12 03:59N 51°32' W 005°19'0 0.1
2018-Apr-12 03:11N 51°32' W 005°19'0 0.1
2018-Apr-12 02:53N 51°32' W 005°19'0 0.1
2018-Apr-12 02:26N 51°32' W 005°19'0 0.1
2018-Apr-12 01:41N 51°32' W 005°19'0 0.0
2018-Apr-12 00:56N 51°32' W 005°19'0 0.1
2018-Apr-12 00:26N 51°31' W 005°19'0 0.1
2018-Apr-11 23:59N 51°31' W 005°19'0 0.0
2018-Apr-11 23:29N 51°31' W 005°19'0 0.0
2018-Apr-11 22:59N 51°31' W 005°19'0 0.1
2018-Apr-11 22:29N 51°31' W 005°19'0 0.1
2018-Apr-11 21:50N 51°31' W 005°19'0 0.2
2018-Apr-11 21:26N 51°31' W 005°19'0 0.0
2018-Apr-11 20:59N 51°31' W 005°19'0 0.1
2018-Apr-11 20:14N 51°31' W 005°20'0 0.1
2018-Apr-11 19:59N 51°31' W 005°20'0 0.1
2018-Apr-11 19:29N 51°32' W 005°20'0 0.0
2018-Apr-11 18:47N 51°32' W 005°20'0 0.0
2018-Apr-11 18:29N 51°32' W 005°19'0 0.0
2018-Apr-11 17:56N 51°32' W 005°19'0 0.0
2018-Apr-11 17:29N 51°32' W 005°19'0 0.0
2018-Apr-11 16:53N 51°32' W 005°19'0 0.1
2018-Apr-11 16:29N 51°32' W 005°19'0 0.1
2018-Apr-11 15:56N 51°32' W 005°19'0 0.0
2018-Apr-11 15:23N 51°32' W 005°19'0 0.1
2018-Apr-11 14:59N 51°32' W 005°19'0 0.2
2018-Apr-11 14:26N 51°32' W 005°19'0 0.2
2018-Apr-11 13:59N 51°32' W 005°19'0 0.1
2018-Apr-11 13:29N 51°31' W 005°19'0 0.0
2018-Apr-11 12:59N 51°31' W 005°19'0 0.0
2018-Apr-11 12:29N 51°31' W 005°19'0 0.1
2018-Apr-11 11:59N 51°31' W 005°19'0 0.0
2018-Apr-11 11:26N 51°31' W 005°19'0 0.0
2018-Apr-11 10:59N 51°31' W 005°19'0 0.0
2018-Apr-11 10:29N 51°31' W 005°19'0 0.0
2018-Apr-11 09:59N 51°31' W 005°19'0 0.0
2018-Apr-11 09:17N 51°31' W 005°19'0 0.1
2018-Apr-11 08:59N 51°31' W 005°19'0 0.0
2018-Apr-11 08:29N 51°31' W 005°19'0 0.1
2018-Apr-11 07:56N 51°31' W 005°19'0 0.2
2018-Apr-11 07:26N 51°31' W 005°19'0 0.2
2018-Apr-11 06:59N 51°31' W 005°19'0 0.1
2018-Apr-11 06:23N 51°32' W 005°19'0 0.0
2018-Apr-11 05:59N 51°32' W 005°19'0 0.0
2018-Apr-11 05:20N 51°32' W 005°19'0 0.0
2018-Apr-11 04:59N 51°32' W 005°19'0 0.0
2018-Apr-11 04:29N 51°32' W 005°19'0 0.0
2018-Apr-11 03:59N 51°32' W 005°19'0 0.0
2018-Apr-11 03:29N 51°32' W 005°19'0 0.0
2018-Apr-11 02:56N 51°32' W 005°19'0 0.3
2018-Apr-11 02:26N 51°32' W 005°19'0 0.3
2018-Apr-11 01:53N 51°31' W 005°19'0 0.1
2018-Apr-11 01:29N 51°31' W 005°19'0 0.1
2018-Apr-11 00:59N 51°31' W 005°19'0 0.0
2018-Apr-11 00:23N 51°31' W 005°19'0 0.0
2018-Apr-10 23:59N 51°31' W 005°19'0 0.0
2018-Apr-10 23:29N 51°31' W 005°19'0 0.0
2018-Apr-10 22:59N 51°31' W 005°19'0 0.0
2018-Apr-10 22:29N 51°31' W 005°19'0 0.0
2018-Apr-10 21:59N 51°31' W 005°19'0 0.0
2018-Apr-10 21:23N 51°31' W 005°19'0 0.0
2018-Apr-10 20:56N 51°31' W 005°19'0 0.0
2018-Apr-10 20:29N 51°31' W 005°19'0 0.0
2018-Apr-10 19:59N 51°31' W 005°19'0 0.1
2018-Apr-10 19:23N 51°31' W 005°19'0 0.4
2018-Apr-10 18:59N 51°31' W 005°19'0 0.2
2018-Apr-10 18:29N 51°32' W 005°19'0 0.1
2018-Apr-10 17:59N 51°32' W 005°19'0 0.0
2018-Apr-10 17:29N 51°32' W 005°19'0 0.0
2018-Apr-10 16:59N 51°32' W 005°19'0 0.0
2018-Apr-10 16:29N 51°32' W 005°19'0 0.0
2018-Apr-10 15:59N 51°32' W 005°19'0 0.0
2018-Apr-10 15:29N 51°32' W 005°19'0 0.0
2018-Apr-10 14:59N 51°32' W 005°19'0 0.1
2018-Apr-10 14:29N 51°32' W 005°19'0 0.1
2018-Apr-10 13:56N 51°32' W 005°19'0 0.2
2018-Apr-10 13:26N 51°32' W 005°19'0 0.2
2018-Apr-10 12:53N 51°31' W 005°19'0 0.0
2018-Apr-10 12:20N 51°31' W 005°19'0 0.1
2018-Apr-10 11:53N 51°31' W 005°19'0 0.0
2018-Apr-10 11:29N 51°31' W 005°19'0 0.0
2018-Apr-10 10:59N 51°31' W 005°19'0 0.0
2018-Apr-10 10:29N 51°31' W 005°19'0 0.0
2018-Apr-10 09:53N 51°31' W 005°19'0 0.0
2018-Apr-10 09:29N 51°31' W 005°19'0 0.0
2018-Apr-10 08:59N 51°31' W 005°19'0 0.1
2018-Apr-10 08:29N 51°31' W 005°19'0 0.0
2018-Apr-10 07:59N 51°31' W 005°19'0 0.0
2018-Apr-10 07:29N 51°31' W 005°19'0 0.1
2018-Apr-10 06:59N 51°31' W 005°19'0 0.3
2018-Apr-10 06:29N 51°32' W 005°19'0 0.1
2018-Apr-10 05:56N 51°32' W 005°19'0 0.0
2018-Apr-10 05:29N 51°32' W 005°19'0 0.1
2018-Apr-10 04:59N 51°32' W 005°19'0 0.0
2018-Apr-10 04:29N 51°32' W 005°19'0 0.0
2018-Apr-10 03:47N 51°32' W 005°19'0 0.1
2018-Apr-10 03:29N 51°32' W 005°19'0 0.0
2018-Apr-10 02:59N 51°32' W 005°19'0 0.0
2018-Apr-10 02:29N 51°32' W 005°19'0 0.1
2018-Apr-10 01:59N 51°32' W 005°19'0 0.1
2018-Apr-10 01:29N 51°32' W 005°19'0 0.1
2018-Apr-10 00:59N 51°32' W 005°19'0 0.2
2018-Apr-10 00:26N 51°32' W 005°19'0 0.0
2018-Apr-09 23:50N 51°32' W 005°19'0 0.1
2018-Apr-09 23:14N 51°31' W 005°19'0 0.0
2018-Apr-09 22:14N 51°31' W 005°19'0 0.0
2018-Apr-09 21:56N 51°31' W 005°19'0 0.0
2018-Apr-09 21:14N 51°31' W 005°19'0 0.1
2018-Apr-09 20:56N 51°31' W 005°19'0 0.0
2018-Apr-09 20:26N 51°31' W 005°19'0 0.0
2018-Apr-09 19:56N 51°31' W 005°19'0 0.0
2018-Apr-09 19:17N 51°31' W 005°19'0 0.0
2018-Apr-09 18:14N 51°31' W 005°19'0 0.1
2018-Apr-09 17:59N 51°31' W 005°19'0 0.1
2018-Apr-09 17:29N 51°32' W 005°19'0 0.2
2018-Apr-09 16:56N 51°32' W 005°19'0 0.0
2018-Apr-09 16:29N 51°32' W 005°19'0 0.0
2018-Apr-09 15:41N 51°32' W 005°19'0 0.0
2018-Apr-09 15:29N 51°32' W 005°19'0 0.0
2018-Apr-09 14:59N 51°32' W 005°19'  
Track history (hours):
 
Tides and Currents Weather Stations Pressure Air Temp Water Temp Dewpoint Dewpoint Depression Visibility Wind Speed Wind Dir Waves Ship Positions

Troviken

Last reported at 2018-Apr-19 14:30 UTC. Time now 2018-Apr-20 14:45 UTC.
Position N 60°48' E 004°18'.

Length 250 m; draft 8.5 m.

Type: Tanker. MMSI: 311066200.

Date/timePositionNaut miles runAvg speedWind from/ knotsBaromVisibWave heightAir tempDewpointWater temp
2018-Apr-19 14:30N 60°48' E 004°18'4 7.6
2018-Apr-19 14:00N 60°45' E 004°23'94 7.1
2018-Apr-19 00:40N 59°11' E 004°11'2 6.9
2018-Apr-19 00:24N 59°09' E 004°11'3 6.7
2018-Apr-18 23:55N 59°06' E 004°11'3 6.8
2018-Apr-18 23:30N 59°03' E 004°11'4 6.9
2018-Apr-18 22:57N 58°59' E 004°11'6 6.7
2018-Apr-18 22:06N 58°53' E 004°11'1 6.5
2018-Apr-18 21:58N 58°53' E 004°11'33 6.6
2018-Apr-18 16:54N 58°19' E 004°11'5 6.1
2018-Apr-18 16:07N 58°14' E 004°11'8 5.4
2018-Apr-18 14:42N 58°07' E 004°11'1 5.4
2018-Apr-18 14:29N 58°06' E 004°12'21712.5
2018-Apr-17 21:06N 54°28' E 004°33'114.1
2018-Apr-17 21:00N 54°27' E 004°34'814.0
2018-Apr-17 20:27N 54°20' E 004°37'614.0
2018-Apr-17 20:00N 54°14' E 004°39'714.1
2018-Apr-17 19:30N 54°06' E 004°40'9014.1
2018-Apr-17 13:07N 52°51' E 003°17'314.0
2018-Apr-17 12:53N 52°48' E 003°15'513.8
2018-Apr-17 12:30N 52°43' E 003°11'1413.3
2018-Apr-17 11:29N 52°31' E 003°00'3212.3
2018-Apr-17 08:54N 52°02' E 002°41'512.4
2018-Apr-17 08:30N 51°57' E 002°42'612.1
2018-Apr-17 08:00N 51°51' E 002°39'612.4
2018-Apr-17 07:30N 51°46' E 002°34'613.1
2018-Apr-17 07:00N 51°41' E 002°28'713.5
2018-Apr-17 06:30N 51°35' E 002°21'713.8
2018-Apr-17 06:00N 51°30' E 002°14'713.4
2018-Apr-17 05:30N 51°25' E 002°08'713.7
2018-Apr-17 05:00N 51°18' E 002°07'713.2
2018-Apr-17 04:30N 51°13' E 002°01'713.8
2018-Apr-17 04:01N 51°09' E 001°51'714.4
2018-Apr-17 03:30N 51°05' E 001°42'714.9
2018-Apr-17 03:00N 50°60' E 001°34'815.2
2018-Apr-17 02:30N 50°53' E 001°27'815.8
2018-Apr-17 02:00N 50°46' E 001°23'714.4
2018-Apr-17 01:30N 50°40' E 001°17'714.4
2018-Apr-17 01:00N 50°35' E 001°09'814.1
2018-Apr-17 00:28N 50°31' E 000°59'814.7
2018-Apr-16 23:54N 50°28' E 000°46'614.7
2018-Apr-16 23:30N 50°26' E 000°38'815.1
2018-Apr-16 23:00N 50°24' E 000°26'815.6
2018-Apr-16 22:30N 50°21' E 000°15'816.1
2018-Apr-16 22:00N 50°19' E 000°02'816.4
2018-Apr-16 21:30N 50°18' W 000°10'816.9
2018-Apr-16 21:00N 50°16' W 000°23'2117.3
2018-Apr-16 19:49N 50°10' W 000°54'517.3
2018-Apr-16 19:30N 50°08' W 001°02'917.1
2018-Apr-16 19:01N 50°06' W 001°14'816.6
2018-Apr-16 18:31N 50°04' W 001°27'815.8
2018-Apr-16 18:00N 50°02' W 001°39'815.0
2018-Apr-16 17:30N 50°01' W 001°51'714.0
2018-Apr-16 17:01N 49°59' W 002°01'713.2
2018-Apr-16 16:30N 49°58' W 002°11'1212.4
2018-Apr-16 15:30N 49°54' W 002°30'611.9
2018-Apr-16 14:59N 49°52' W 002°39'611.7
2018-Apr-16 14:27N 49°50' W 002°48'511.8
2018-Apr-16 14:00N 49°50' W 002°56'611.6
2018-Apr-16 13:30N 49°50' W 003°05'611.4
2018-Apr-16 13:01N 49°50' W 003°14'611.6
2018-Apr-16 12:30N 49°51' W 003°23'611.6
2018-Apr-16 12:00N 49°50' W 003°32'611.5
2018-Apr-16 11:30N 49°50' W 003°41'911.8
2018-Apr-16 10:43N 49°50' W 003°55'312.1
2018-Apr-16 10:28N 49°50' W 003°60'612.2
2018-Apr-16 10:00N 49°50' W 004°09'612.4
2018-Apr-16 09:30N 49°50' W 004°18'712.6
2018-Apr-16 08:56N 49°50' W 004°29'712.9
2018-Apr-16 08:22N 49°50' W 004°41'1613.5
2018-Apr-16 07:10N 49°50' W 005°06'314.1
2018-Apr-16 06:57N 49°50' W 005°11'1414.1
2018-Apr-16 05:58N 49°50' W 005°32'32 8.7
2018-Apr-16 02:19N 50°16' W 006°01'310.5
2018-Apr-16 02:00N 50°19' W 006°02'610.2
2018-Apr-16 01:28N 50°25' W 006°01'710.6
2018-Apr-16 00:47N 50°32' W 006°01'910.5
2018-Apr-15 23:55N 50°41' W 005°55'410.3
2018-Apr-15 23:30N 50°45' W 005°52'510.6
2018-Apr-15 23:00N 50°49' W 005°49'1010.7
2018-Apr-15 22:04N 50°58' W 005°42'111.1
2018-Apr-15 21:58N 50°59' W 005°41'1210.7
2018-Apr-15 20:52N 51°10' W 005°34'410.3
2018-Apr-15 20:30N 51°13' W 005°31'810.1
2018-Apr-15 19:45N 51°20' W 005°26'310.1
2018-Apr-15 19:30N 51°23' W 005°24'8 9.5
2018-Apr-15 18:38N 51°30' W 005°18'1 9.5
2018-Apr-15 18:30N 51°31' W 005°18'5 9.3
2018-Apr-15 18:00N 51°36' W 005°15'4 8.9
2018-Apr-15 17:30N 51°40' W 005°12'4 8.2
2018-Apr-15 17:00N 51°42' W 005°07'3 5.2
2018-Apr-15 16:30N 51°42' W 005°02'0 0.3
2018-Apr-15 16:00N 51°42' W 005°03'0 0.0
2018-Apr-15 15:30N 51°42' W 005°03'0 0.0
2018-Apr-14 08:11N 51°42' W 005°03'0 0.0
2018-Apr-14 07:56N 51°42' W 005°03'0 0.0
2018-Apr-14 07:29N 51°42' W 005°03'0 0.0
2018-Apr-14 06:59N 51°42' W 005°03'1 1.9
2018-Apr-14 06:30N 51°42' W 005°04'3 6.6
2018-Apr-14 06:00N 51°41' W 005°09'5 9.8
2018-Apr-14 05:29N 51°37' W 005°13'510.5
2018-Apr-14 05:00N 51°33' W 005°18'1 2.3
2018-Apr-14 04:26N 51°32' W 005°19'0 0.3
2018-Apr-14 03:50N 51°32' W 005°19'0 0.2
2018-Apr-14 03:29N 51°31' W 005°19'0 0.1
2018-Apr-14 02:53N 51°31' W 005°19'0 0.0
2018-Apr-14 02:29N 51°31' W 005°19'0 0.0
2018-Apr-14 01:59N 51°31' W 005°19'0 0.0
2018-Apr-14 01:29N 51°31' W 005°19'0 0.1
2018-Apr-14 00:53N 51°31' W 005°19'0 0.0
2018-Apr-14 00:23N 51°31' W 005°19'0 0.0
2018-Apr-13 23:56N 51°31' W 005°19'0 0.1
2018-Apr-13 23:29N 51°31' W 005°19'0 0.2
2018-Apr-13 22:50N 51°31' W 005°19'0 0.2
2018-Apr-13 22:29N 51°31' W 005°19'0 0.2
2018-Apr-13 21:59N 51°31' W 005°20'0 0.1
2018-Apr-13 21:26N 51°31' W 005°20'0 0.0
2018-Apr-13 20:59N 51°32' W 005°20'0 0.1
2018-Apr-13 20:29N 51°32' W 005°20'0 0.0
2018-Apr-13 19:59N 51°32' W 005°20'0 0.0
2018-Apr-13 19:29N 51°32' W 005°20'0 0.0
2018-Apr-13 18:56N 51°32' W 005°20'0 0.1
2018-Apr-13 18:29N 51°32' W 005°20'0 0.1
2018-Apr-13 17:59N 51°32' W 005°19'0 0.1
2018-Apr-13 17:26N 51°32' W 005°19'0 0.1
2018-Apr-13 16:59N 51°32' W 005°19'0 0.1
2018-Apr-13 16:23N 51°32' W 005°19'0 0.2
2018-Apr-13 15:59N 51°32' W 005°19'0 0.1
2018-Apr-13 15:26N 51°32' W 005°19'0 0.1
2018-Apr-13 14:56N 51°31' W 005°19'0 0.1
2018-Apr-13 14:29N 51°31' W 005°19'0 0.0
2018-Apr-13 13:59N 51°31' W 005°19'0 0.1
2018-Apr-13 13:29N 51°31' W 005°19'0 0.1
2018-Apr-13 12:59N 51°31' W 005°19'0 0.1
2018-Apr-13 12:26N 51°31' W 005°19'0 0.0
2018-Apr-13 11:53N 51°31' W 005°19'0 0.0
2018-Apr-13 11:29N 51°31' W 005°19'0 0.1
2018-Apr-13 10:59N 51°31' W 005°19'0 0.3
2018-Apr-13 10:29N 51°31' W 005°19'0 0.2
2018-Apr-13 09:59N 51°31' W 005°19'0 0.1
2018-Apr-13 09:29N 51°32' W 005°20'0 0.0
2018-Apr-13 08:56N 51°32' W 005°20'0 0.0
2018-Apr-13 08:26N 51°32' W 005°19'0 0.0
2018-Apr-13 07:59N 51°32' W 005°19'0 0.1
2018-Apr-13 07:26N 51°32' W 005°19'0 0.0
2018-Apr-13 06:59N 51°32' W 005°19'0 0.0
2018-Apr-13 06:29N 51°32' W 005°19'0 0.0
2018-Apr-13 05:59N 51°32' W 005°19'0 0.0
2018-Apr-13 05:29N 51°32' W 005°19'0 0.0
2018-Apr-13 04:56N 51°32' W 005°19'0 0.1
2018-Apr-13 04:26N 51°32' W 005°19'0 0.1
2018-Apr-13 03:59N 51°32' W 005°19'0 0.2
2018-Apr-13 03:29N 51°32' W 005°19'0 0.2
2018-Apr-13 02:59N 51°32' W 005°19'0 0.1
2018-Apr-13 02:29N 51°31' W 005°19'0 0.0
2018-Apr-13 01:59N 51°31' W 005°19'0 0.0
2018-Apr-13 01:29N 51°31' W 005°19'0 0.0
2018-Apr-13 00:59N 51°31' W 005°19'0 0.0
2018-Apr-13 00:29N 51°31' W 005°19'0 0.1
2018-Apr-12 23:59N 51°31' W 005°19'0 0.0
2018-Apr-12 23:23N 51°31' W 005°19'0 0.0
2018-Apr-12 22:59N 51°31' W 005°19'0 0.2
2018-Apr-12 22:26N 51°31' W 005°19'0 0.2
2018-Apr-12 21:59N 51°31' W 005°19'0 0.2
2018-Apr-12 21:29N 51°32' W 005°19'0 0.1
2018-Apr-12 20:59N 51°32' W 005°19'0 0.0
2018-Apr-12 20:29N 51°32' W 005°19'0 0.0
2018-Apr-12 19:59N 51°32' W 005°19'0 0.0
2018-Apr-12 19:26N 51°32' W 005°19'0 0.0
2018-Apr-12 18:47N 51°32' W 005°19'0 0.1
2018-Apr-12 18:26N 51°32' W 005°19'0 0.0
2018-Apr-12 17:59N 51°32' W 005°19'0 0.1
2018-Apr-12 17:29N 51°32' W 005°19'0 0.0
2018-Apr-12 16:56N 51°32' W 005°19'0 0.0
2018-Apr-12 16:29N 51°32' W 005°19'0 0.1
2018-Apr-12 15:59N 51°32' W 005°19'0 0.1
2018-Apr-12 15:29N 51°32' W 005°19'0 0.2
2018-Apr-12 14:59N 51°32' W 005°19'0 0.1
2018-Apr-12 14:17N 51°31' W 005°19'0 0.1
2018-Apr-12 13:59N 51°31' W 005°19'0 0.0
2018-Apr-12 13:29N 51°31' W 005°19'0 0.0
2018-Apr-12 12:59N 51°31' W 005°19'0 0.0
2018-Apr-12 12:29N 51°31' W 005°19'0 0.0
2018-Apr-12 11:59N 51°31' W 005°19'0 0.1
2018-Apr-12 11:26N 51°31' W 005°19'0 0.1
2018-Apr-12 10:59N 51°31' W 005°19'0 0.1
2018-Apr-12 10:29N 51°31' W 005°19'0 0.1
2018-Apr-12 09:59N 51°31' W 005°19'0 0.2
2018-Apr-12 09:29N 51°31' W 005°19'0 0.0
2018-Apr-12 08:53N 51°31' W 005°19'0 0.1
2018-Apr-12 08:29N 51°31' W 005°20'0 0.1
2018-Apr-12 07:53N 51°31' W 005°20'0 0.1
2018-Apr-12 07:29N 51°32' W 005°20'0 0.1
2018-Apr-12 06:59N 51°32' W 005°20'0 0.1
2018-Apr-12 06:29N 51°32' W 005°19'0 0.0
2018-Apr-12 05:56N 51°32' W 005°19'0 0.0
2018-Apr-12 05:29N 51°32' W 005°19'0 0.1
2018-Apr-12 04:59N 51°32' W 005°19'0 0.1
2018-Apr-12 04:26N 51°32' W 005°19'0 0.1
2018-Apr-12 03:59N 51°32' W 005°19'0 0.1
2018-Apr-12 03:11N 51°32' W 005°19'0 0.1
2018-Apr-12 02:53N 51°32' W 005°19'0 0.1
2018-Apr-12 02:26N 51°32' W 005°19'0 0.1
2018-Apr-12 01:41N 51°32' W 005°19'0 0.0
2018-Apr-12 00:56N 51°32' W 005°19'0 0.1
2018-Apr-12 00:26N 51°31' W 005°19'0 0.1
2018-Apr-11 23:59N 51°31' W 005°19'0 0.0
2018-Apr-11 23:29N 51°31' W 005°19'0 0.0
2018-Apr-11 22:59N 51°31' W 005°19'0 0.1
2018-Apr-11 22:29N 51°31' W 005°19'0 0.1
2018-Apr-11 21:50N 51°31' W 005°19'0 0.2
2018-Apr-11 21:26N 51°31' W 005°19'0 0.0
2018-Apr-11 20:59N 51°31' W 005°19'0 0.1
2018-Apr-11 20:14N 51°31' W 005°20'0 0.1
2018-Apr-11 19:59N 51°31' W 005°20'0 0.1
2018-Apr-11 19:29N 51°32' W 005°20'0 0.0
2018-Apr-11 18:47N 51°32' W 005°20'0 0.0
2018-Apr-11 18:29N 51°32' W 005°19'0 0.0
2018-Apr-11 17:56N 51°32' W 005°19'0 0.0
2018-Apr-11 17:29N 51°32' W 005°19'0 0.0
2018-Apr-11 16:53N 51°32' W 005°19'0 0.1
2018-Apr-11 16:29N 51°32' W 005°19'0 0.1
2018-Apr-11 15:56N 51°32' W 005°19'0 0.0
2018-Apr-11 15:23N 51°32' W 005°19'0 0.1
2018-Apr-11 14:59N 51°32' W 005°19'0 0.2
2018-Apr-11 14:26N 51°32' W 005°19'0 0.2
2018-Apr-11 13:59N 51°32' W 005°19'0 0.1
2018-Apr-11 13:29N 51°31' W 005°19'0 0.0
2018-Apr-11 12:59N 51°31' W 005°19'0 0.0
2018-Apr-11 12:29N 51°31' W 005°19'0 0.1
2018-Apr-11 11:59N 51°31' W 005°19'0 0.0
2018-Apr-11 11:26N 51°31' W 005°19'0 0.0
2018-Apr-11 10:59N 51°31' W 005°19'0 0.0
2018-Apr-11 10:29N 51°31' W 005°19'0 0.0
2018-Apr-11 09:59N 51°31' W 005°19'0 0.0
2018-Apr-11 09:17N 51°31' W 005°19'0 0.1
2018-Apr-11 08:59N 51°31' W 005°19'0 0.0
2018-Apr-11 08:29N 51°31' W 005°19'0 0.1
2018-Apr-11 07:56N 51°31' W 005°19'0 0.2
2018-Apr-11 07:26N 51°31' W 005°19'0 0.2
2018-Apr-11 06:59N 51°31' W 005°19'0 0.1
2018-Apr-11 06:23N 51°32' W 005°19'0 0.0
2018-Apr-11 05:59N 51°32' W 005°19'0 0.0
2018-Apr-11 05:20N 51°32' W 005°19'0 0.0
2018-Apr-11 04:59N 51°32' W 005°19'0 0.0
2018-Apr-11 04:29N 51°32' W 005°19'0 0.0
2018-Apr-11 03:59N 51°32' W 005°19'0 0.0
2018-Apr-11 03:29N 51°32' W 005°19'0 0.0
2018-Apr-11 02:56N 51°32' W 005°19'0 0.3
2018-Apr-11 02:26N 51°32' W 005°19'0 0.3
2018-Apr-11 01:53N 51°31' W 005°19'0 0.1
2018-Apr-11 01:29N 51°31' W 005°19'0 0.1
2018-Apr-11 00:59N 51°31' W 005°19'0 0.0
2018-Apr-11 00:23N 51°31' W 005°19'0 0.0
2018-Apr-10 23:59N 51°31' W 005°19'0 0.0
2018-Apr-10 23:29N 51°31' W 005°19'0 0.0
2018-Apr-10 22:59N 51°31' W 005°19'0 0.0
2018-Apr-10 22:29N 51°31' W 005°19'0 0.0
2018-Apr-10 21:59N 51°31' W 005°19'0 0.0
2018-Apr-10 21:23N 51°31' W 005°19'0 0.0
2018-Apr-10 20:56N 51°31' W 005°19'0 0.0
2018-Apr-10 20:29N 51°31' W 005°19'0 0.0
2018-Apr-10 19:59N 51°31' W 005°19'0 0.1
2018-Apr-10 19:23N 51°31' W 005°19'0 0.4
2018-Apr-10 18:59N 51°31' W 005°19'0 0.2
2018-Apr-10 18:29N 51°32' W 005°19'0 0.1
2018-Apr-10 17:59N 51°32' W 005°19'0 0.0
2018-Apr-10 17:29N 51°32' W 005°19'0 0.0
2018-Apr-10 16:59N 51°32' W 005°19'0 0.0
2018-Apr-10 16:29N 51°32' W 005°19'0 0.0
2018-Apr-10 15:59N 51°32' W 005°19'0 0.0
2018-Apr-10 15:29N 51°32' W 005°19'0 0.0
2018-Apr-10 14:59N 51°32' W 005°19'0 0.1
2018-Apr-10 14:29N 51°32' W 005°19'0 0.1
2018-Apr-10 13:56N 51°32' W 005°19'0 0.2
2018-Apr-10 13:26N 51°32' W 005°19'0 0.2
2018-Apr-10 12:53N 51°31' W 005°19'0 0.0
2018-Apr-10 12:20N 51°31' W 005°19'0 0.1
2018-Apr-10 11:53N 51°31' W 005°19'0 0.0
2018-Apr-10 11:29N 51°31' W 005°19'0 0.0
2018-Apr-10 10:59N 51°31' W 005°19'0 0.0
2018-Apr-10 10:29N 51°31' W 005°19'0 0.0
2018-Apr-10 09:53N 51°31' W 005°19'0 0.0
2018-Apr-10 09:29N 51°31' W 005°19'0 0.0
2018-Apr-10 08:59N 51°31' W 005°19'0 0.1
2018-Apr-10 08:29N 51°31' W 005°19'0 0.0
2018-Apr-10 07:59N 51°31' W 005°19'0 0.0
2018-Apr-10 07:29N 51°31' W 005°19'0 0.1
2018-Apr-10 06:59N 51°31' W 005°19'0 0.3
2018-Apr-10 06:29N 51°32' W 005°19'0 0.1
2018-Apr-10 05:56N 51°32' W 005°19'0 0.0
2018-Apr-10 05:29N 51°32' W 005°19'0 0.1
2018-Apr-10 04:59N 51°32' W 005°19'0 0.0
2018-Apr-10 04:29N 51°32' W 005°19'0 0.0
2018-Apr-10 03:47N 51°32' W 005°19'0 0.1
2018-Apr-10 03:29N 51°32' W 005°19'0 0.0
2018-Apr-10 02:59N 51°32' W 005°19'0 0.0
2018-Apr-10 02:29N 51°32' W 005°19'0 0.1
2018-Apr-10 01:59N 51°32' W 005°19'0 0.1
2018-Apr-10 01:29N 51°32' W 005°19'0 0.1
2018-Apr-10 00:59N 51°32' W 005°19'0 0.2
2018-Apr-10 00:26N 51°32' W 005°19'0 0.0
2018-Apr-09 23:50N 51°32' W 005°19'0 0.1
2018-Apr-09 23:14N 51°31' W 005°19'0 0.0
2018-Apr-09 22:14N 51°31' W 005°19'0 0.0
2018-Apr-09 21:56N 51°31' W 005°19'0 0.0
2018-Apr-09 21:14N 51°31' W 005°19'0 0.1
2018-Apr-09 20:56N 51°31' W 005°19'0 0.0
2018-Apr-09 20:26N 51°31' W 005°19'0 0.0
2018-Apr-09 19:56N 51°31' W 005°19'0 0.0
2018-Apr-09 19:17N 51°31' W 005°19'0 0.0
2018-Apr-09 18:14N 51°31' W 005°19'0 0.1
2018-Apr-09 17:59N 51°31' W 005°19'0 0.1
2018-Apr-09 17:29N 51°32' W 005°19'0 0.2
2018-Apr-09 16:56N 51°32' W 005°19'0 0.0
2018-Apr-09 16:29N 51°32' W 005°19'0 0.0
2018-Apr-09 15:41N 51°32' W 005°19'0 0.0
2018-Apr-09 15:29N 51°32' W 005°19'0 0.0
2018-Apr-09 14:59N 51°32' W 005°19'  

Dump ship's entire track history